• Join FlightAware (Why Join?)
  • Login
  • US Flag 
Trick or treat! (Boo!!) 
05:10AM EDT


 

Airport Tracker/Info


-or-


 

Live Flight TrackerFlight Track Log ✈ EGF3332 ✈ 06-Apr-2012 ✈ KLBB - KDFW

Flight Track Log - Related Links

Times and Time Zones

All times are in EDT time to prevent confusion due to time zone crossing. See the EGF3332 flight status page for this flight to view local times or setup timezone preferences in your user account.

Time Position Orientation Groundspeed Altitude Reporting Facility
EDT Latitude Longitude Course Direction KTS MPH feet Rate Location/Type
07:04AM 33.6502 -101.7988 275° West  Level FlightAware Approximate
07:05AM 33.6528 -101.8325 76° East 162 186 3,700  Level Fort Worth Center
07:06AM 33.6706 -101.7436 64° Northeast 249 287 6,200 1,860 Climbing Fort Worth Center
07:07AM 33.7094 -101.6481 81° East 285 328 8,600 1,860 Climbing Fort Worth Center
07:08AM 33.7231 -101.5489 86° East 307 353 10,300 1,440 Climbing Fort Worth Center
07:09AM 33.7272 -101.4817 88° East 313 360 11,000 840 Climbing Fort Worth Center
07:10AM 33.7308 -101.3769 89° East 348 400 11,700 1,140 Climbing Fort Worth Center
07:11AM 33.7328 -101.2447 96° East 362 417 13,300 1,500 Climbing Fort Worth Center
07:12AM 33.7236 -101.1319 91° East 367 422 14,700 1,500 Climbing Fort Worth Center
07:13AM 33.7214 -100.9944 94° East 368 423 16,300 1,500 Climbing Fort Worth Center
07:14AM 33.7142 -100.8844 91° East 368 423 17,700 1,500 Climbing Fort Worth Center
07:15AM 33.7114 -100.7494 94° East 368 423 19,400 1,440 Climbing Fort Worth Center
07:16AM 33.7042 -100.6317 94° East 374 430 20,700 1,440 Climbing Fort Worth Center
07:17AM 33.6969 -100.5067 93° East 374 430 22,300 1,560 Climbing Fort Worth Center
07:18AM 33.6917 -100.3792 93° East 379 436 23,800 1,380 Climbing Fort Worth Center
07:19AM 33.6844 -100.2367 94° East 384 442 25,200 1,200 Climbing Fort Worth Center
07:20AM 33.6769 -100.1017 94° East 389 448 26,300 900 Climbing Fort Worth Center
07:21AM 33.6694 -99.9642 93° East 404 465 27,000 300 Climbing Fort Worth Center
07:22AM 33.6619 -99.8167 94° East 420 483 27,000  Level Fort Worth Center
07:23AM 33.6522 -99.6642 93° East 440 506 27,000  Level Fort Worth Center
07:24AM 33.6444 -99.5069 94° East 460 529 27,000  Level Fort Worth Center
07:25AM 33.6344 -99.3444 95° East 472 543 27,000  Level Fort Worth Center
07:26AM 33.6225 -99.1819 92° East 479 551 27,000  Level Fort Worth Center
07:27AM 33.6181 -99.0397 96° East 479 551 27,000  Level Fort Worth Center
07:28AM 33.6036 -98.8650 94° East 479 551 27,000  Level Fort Worth Center
07:29AM 33.5928 -98.7003 103° East 489 563 27,000  Level Fort Worth Center
07:30AM 33.5631 -98.5403 105° East 479 551 27,000 -360 Level Fort Worth Center
07:31AM 33.5267 -98.3803 102° East 490 564 26,300 -1,620 Descending Fort Worth Center
07:32AM 33.4986 -98.2256 104° East 485 558 23,800 -2,700 Descending Fort Worth Center
07:33AM 33.4683 -98.0758 103° East 469 540 20,900 -2,880 Descending Fort Worth Center
07:34AM 33.4439 -97.9486 102° East 442 509 18,200 -3,000 Descending Fort Worth Center
07:34AM 33.4256 -97.8450 103° East 430 495 16,100 -2,760 Descending FAA TRACON SMA TRACON (SMA)
07:35AM 33.4094 -97.7603 105° East 425 489 14,600 -2,400 Descending FAA TRACON SMA TRACON (SMA)
07:36AM 33.3897 -97.6700 126° Southeast 407 468 12,900 -2,640 Descending FAA TRACON SMA TRACON (SMA)
07:36AM 33.3442 -97.5953 136° Southeast 408 470 11,200 -1,500 Descending FAA TRACON SMA TRACON (SMA)
07:37AM 33.2950 -97.5381 136° Southeast 401 461 11,000 -180 Descending FAA TRACON SMA TRACON (SMA)
07:38AM 33.2394 -97.4736 136° Southeast 401 461 11,000  Level FAA TRACON SMA TRACON (SMA)
07:38AM 33.1833 -97.4086 136° Southeast 406 467 11,000  Level FAA TRACON SMA TRACON (SMA)
07:39AM 33.1272 -97.3431 136° Southeast 408 470 11,000  Level FAA TRACON SMA TRACON (SMA)
07:40AM 33.0772 -97.2858 135° Southeast 405 466 11,000  Level FAA TRACON SMA TRACON (SMA)
07:40AM 33.0281 -97.2275 138° Southeast 350 403 11,000 -120 Level FAA TRACON SMA TRACON (SMA)
07:41AM 32.9897 -97.1858 170° South 296 341 10,900 -480 Descending FAA TRACON SMA TRACON (SMA)
07:42AM 32.9375 -97.1753 178° South 276 318 10,400 -1,440 Descending FAA TRACON SMA TRACON (SMA)
07:42AM 32.8858 -97.1733 178° South 266 306 9,000 -2,100 Descending FAA TRACON SMA TRACON (SMA)
07:43AM 32.8372 -97.1714 178° South 248 285 7,700 -1,980 Descending FAA TRACON SMA TRACON (SMA)
07:44AM 32.7958 -97.1697 140° Southeast 241 277 6,400 -2,160 Descending FAA TRACON SMA TRACON (SMA)
07:44AM 32.7628 -97.1367 88° East 256 295 4,800 -2,220 Descending FAA TRACON SMA TRACON (SMA)
07:45AM 32.7644 -97.0853 88° East 228 262 3,500 -2,040 Descending FAA TRACON SMA TRACON (SMA)